sensor_id;sensor_type;location;lat;lon;timestamp;P1;durP1;ratioP1;P2;durP2;ratioP2
8656;SDS011;4366;50.764;7.184;2023-06-19T00:01:27;3.65;;;3.20;;
8656;SDS011;4366;50.764;7.184;2023-06-19T00:06:28;4.55;;;3.65;;
8656;SDS011;4366;50.764;7.184;2023-06-19T00:11:30;3.42;;;3.10;;
8656;SDS011;4366;50.764;7.184;2023-06-19T00:16:32;5.05;;;4.57;;
8656;SDS011;4366;50.764;7.184;2023-06-19T00:21:34;3.42;;;3.13;;
8656;SDS011;4366;50.764;7.184;2023-06-19T00:26:35;7.10;;;3.53;;
8656;SDS011;4366;50.764;7.184;2023-06-19T00:31:38;3.65;;;3.35;;
8656;SDS011;4366;50.764;7.184;2023-06-19T00:36:39;4.00;;;3.60;;
8656;SDS011;4366;50.764;7.184;2023-06-19T00:41:42;3.20;;;3.00;;
8656;SDS011;4366;50.764;7.184;2023-06-19T00:46:44;3.28;;;2.97;;
8656;SDS011;4366;50.764;7.184;2023-06-19T00:51:46;4.28;;;3.88;;
8656;SDS011;4366;50.764;7.184;2023-06-19T00:56:48;4.22;;;3.92;;
8656;SDS011;4366;50.764;7.184;2023-06-19T01:01:51;4.50;;;3.92;;
8656;SDS011;4366;50.764;7.184;2023-06-19T01:06:54;3.60;;;3.30;;
8656;SDS011;4366;50.764;7.184;2023-06-19T01:12:05;3.70;;;3.40;;
8656;SDS011;4366;50.764;7.184;2023-06-19T01:17:10;3.83;;;3.50;;
8656;SDS011;4366;50.764;7.184;2023-06-19T01:22:21;4.05;;;3.67;;
8656;SDS011;4366;50.764;7.184;2023-06-19T01:27:27;4.15;;;3.75;;
8656;SDS011;4366;50.764;7.184;2023-06-19T01:32:41;4.05;;;3.65;;
8656;SDS011;4366;50.764;7.184;2023-06-19T01:37:48;5.05;;;3.50;;
8656;SDS011;4366;50.764;7.184;2023-06-19T01:42:51;4.20;;;3.80;;
8656;SDS011;4366;50.764;7.184;2023-06-19T01:47:53;3.80;;;3.40;;
8656;SDS011;4366;50.764;7.184;2023-06-19T01:52:55;3.78;;;3.40;;
8656;SDS011;4366;50.764;7.184;2023-06-19T01:57:57;3.53;;;3.22;;
8656;SDS011;4366;50.764;7.184;2023-06-19T02:02:59;4.00;;;3.60;;
8656;SDS011;4366;50.764;7.184;2023-06-19T02:08:00;3.95;;;3.25;;
8656;SDS011;4366;50.764;7.184;2023-06-19T02:13:02;3.67;;;3.38;;
8656;SDS011;4366;50.764;7.184;2023-06-19T02:18:04;4.07;;;3.67;;
8656;SDS011;4366;50.764;7.184;2023-06-19T02:23:07;3.83;;;3.53;;
8656;SDS011;4366;50.764;7.184;2023-06-19T02:28:09;3.95;;;3.65;;
8656;SDS011;4366;50.764;7.184;2023-06-19T02:33:10;4.43;;;4.00;;
8656;SDS011;4366;50.764;7.184;2023-06-19T02:38:12;3.97;;;3.67;;
8656;SDS011;4366;50.764;7.184;2023-06-19T02:43:15;4.65;;;3.58;;
8656;SDS011;4366;50.764;7.184;2023-06-19T02:48:17;3.95;;;3.55;;
8656;SDS011;4366;50.764;7.184;2023-06-19T02:53:19;4.10;;;3.70;;
8656;SDS011;4366;50.764;7.184;2023-06-19T02:58:20;4.53;;;4.13;;
8656;SDS011;4366;50.764;7.184;2023-06-19T03:03:22;4.43;;;4.03;;
8656;SDS011;4366;50.764;7.184;2023-06-19T03:08:25;4.53;;;4.05;;
8656;SDS011;4366;50.764;7.184;2023-06-19T03:13:26;4.17;;;3.87;;
8656;SDS011;4366;50.764;7.184;2023-06-19T03:18:28;3.40;;;3.20;;
8656;SDS011;4366;50.764;7.184;2023-06-19T03:23:30;4.63;;;4.07;;
8656;SDS011;4366;50.764;7.184;2023-06-19T03:28:32;4.47;;;4.03;;
8656;SDS011;4366;50.764;7.184;2023-06-19T03:33:34;4.13;;;3.70;;
8656;SDS011;4366;50.764;7.184;2023-06-19T03:38:36;4.63;;;4.23;;
8656;SDS011;4366;50.764;7.184;2023-06-19T03:43:38;4.10;;;3.80;;
8656;SDS011;4366;50.764;7.184;2023-06-19T03:48:41;3.40;;;3.10;;
8656;SDS011;4366;50.764;7.184;2023-06-19T03:53:43;3.43;;;3.13;;
8656;SDS011;4366;50.764;7.184;2023-06-19T03:58:45;5.93;;;3.20;;
8656;SDS011;4366;50.764;7.184;2023-06-19T04:03:46;3.50;;;2.70;;
8656;SDS011;4366;50.764;7.184;2023-06-19T04:08:48;2.90;;;2.70;;
8656;SDS011;4366;50.764;7.184;2023-06-19T04:13:50;3.45;;;3.17;;
8656;SDS011;4366;50.764;7.184;2023-06-19T04:18:52;2.63;;;2.42;;
8656;SDS011;4366;50.764;7.184;2023-06-19T04:23:53;2.78;;;2.55;;
8656;SDS011;4366;50.764;7.184;2023-06-19T04:28:55;2.97;;;2.70;;
8656;SDS011;4366;50.764;7.184;2023-06-19T04:33:57;2.83;;;2.63;;
8656;SDS011;4366;50.764;7.184;2023-06-19T04:38:59;2.83;;;2.63;;
8656;SDS011;4366;50.764;7.184;2023-06-19T04:44:02;2.70;;;2.50;;
8656;SDS011;4366;50.764;7.184;2023-06-19T04:49:05;2.92;;;2.67;;
8656;SDS011;4366;50.764;7.184;2023-06-19T04:54:06;2.47;;;2.28;;
8656;SDS011;4366;50.764;7.184;2023-06-19T04:59:08;3.15;;;2.85;;
8656;SDS011;4366;50.764;7.184;2023-06-19T05:04:10;2.28;;;2.17;;
8656;SDS011;4366;50.764;7.184;2023-06-19T05:09:15;2.90;;;2.47;;
8656;SDS011;4366;50.764;7.184;2023-06-19T05:14:16;2.67;;;2.47;;
8656;SDS011;4366;50.764;7.184;2023-06-19T05:19:18;2.65;;;2.45;;
8656;SDS011;4366;50.764;7.184;2023-06-19T05:24:20;2.33;;;2.13;;
8656;SDS011;4366;50.764;7.184;2023-06-19T05:29:22;2.60;;;2.40;;
8656;SDS011;4366;50.764;7.184;2023-06-19T05:34:23;2.92;;;2.10;;
8656;SDS011;4366;50.764;7.184;2023-06-19T05:39:25;2.20;;;2.08;;
8656;SDS011;4366;50.764;7.184;2023-06-19T05:44:27;2.20;;;2.03;;
8656;SDS011;4366;50.764;7.184;2023-06-19T05:49:29;2.42;;;2.22;;
8656;SDS011;4366;50.764;7.184;2023-06-19T05:54:31;2.55;;;2.35;;
8656;SDS011;4366;50.764;7.184;2023-06-19T05:59:33;2.38;;;2.17;;
8656;SDS011;4366;50.764;7.184;2023-06-19T06:04:34;2.55;;;2.35;;
8656;SDS011;4366;50.764;7.184;2023-06-19T06:09:37;2.92;;;2.42;;
8656;SDS011;4366;50.764;7.184;2023-06-19T06:14:40;2.35;;;2.15;;
8656;SDS011;4366;50.764;7.184;2023-06-19T06:19:44;2.35;;;2.15;;
8656;SDS011;4366;50.764;7.184;2023-06-19T06:24:46;2.28;;;2.10;;
8656;SDS011;4366;50.764;7.184;2023-06-19T06:29:50;2.15;;;1.98;;
8656;SDS011;4366;50.764;7.184;2023-06-19T06:34:52;2.25;;;2.05;;
8656;SDS011;4366;50.764;7.184;2023-06-19T06:39:54;1.90;;;1.77;;
8656;SDS011;4366;50.764;7.184;2023-06-19T06:44:56;2.60;;;2.40;;
8656;SDS011;4366;50.764;7.184;2023-06-19T06:49:58;2.53;;;2.33;;
8656;SDS011;4366;50.764;7.184;2023-06-19T06:55:00;4.03;;;2.45;;
8656;SDS011;4366;50.764;7.184;2023-06-19T07:00:03;2.78;;;2.58;;
8656;SDS011;4366;50.764;7.184;2023-06-19T07:05:08;2.80;;;2.42;;
8656;SDS011;4366;50.764;7.184;2023-06-19T07:10:10;3.42;;;3.13;;
8656;SDS011;4366;50.764;7.184;2023-06-19T07:15:12;2.85;;;2.55;;
8656;SDS011;4366;50.764;7.184;2023-06-19T07:20:14;2.58;;;2.38;;
8656;SDS011;4366;50.764;7.184;2023-06-19T07:25:16;2.75;;;2.53;;
8656;SDS011;4366;50.764;7.184;2023-06-19T07:30:18;2.53;;;2.30;;
8656;SDS011;4366;50.764;7.184;2023-06-19T07:35:20;4.05;;;2.67;;
8656;SDS011;4366;50.764;7.184;2023-06-19T07:40:22;2.30;;;2.10;;
8656;SDS011;4366;50.764;7.184;2023-06-19T07:45:25;2.25;;;2.15;;
8656;SDS011;4366;50.764;7.184;2023-06-19T07:50:26;2.25;;;2.15;;
8656;SDS011;4366;50.764;7.184;2023-06-19T07:55:29;1.98;;;1.88;;
8656;SDS011;4366;50.764;7.184;2023-06-19T08:00:31;2.33;;;2.05;;
8656;SDS011;4366;50.764;7.184;2023-06-19T08:05:33;1.92;;;1.83;;
8656;SDS011;4366;50.764;7.184;2023-06-19T08:10:35;1.88;;;1.77;;
8656;SDS011;4366;50.764;7.184;2023-06-19T08:15:36;1.50;;;1.40;;
8656;SDS011;4366;50.764;7.184;2023-06-19T08:20:38;1.00;;;1.00;;
8656;SDS011;4366;50.764;7.184;2023-06-19T08:25:40;1.23;;;1.08;;
8656;SDS011;4366;50.764;7.184;2023-06-19T08:30:42;1.10;;;1.10;;
8656;SDS011;4366;50.764;7.184;2023-06-19T08:35:43;1.42;;;1.08;;
8656;SDS011;4366;50.764;7.184;2023-06-19T08:40:45;0.88;;;0.88;;
8656;SDS011;4366;50.764;7.184;2023-06-19T08:46:05;0.52;;;0.52;;
8656;SDS011;4366;50.764;7.184;2023-06-19T08:51:10;1.33;;;0.65;;
8656;SDS011;4366;50.764;7.184;2023-06-19T08:56:12;0.98;;;0.60;;
8656;SDS011;4366;50.764;7.184;2023-06-19T09:01:18;0.80;;;0.80;;
8656;SDS011;4366;50.764;7.184;2023-06-19T09:06:20;0.75;;;0.75;;
8656;SDS011;4366;50.764;7.184;2023-06-19T09:11:22;0.60;;;0.60;;
8656;SDS011;4366;50.764;7.184;2023-06-19T09:16:24;0.73;;;0.65;;
8656;SDS011;4366;50.764;7.184;2023-06-19T09:21:39;0.90;;;0.90;;
8656;SDS011;4366;50.764;7.184;2023-06-19T09:26:40;0.75;;;0.73;;
8656;SDS011;4366;50.764;7.184;2023-06-19T09:31:42;0.93;;;0.82;;
8656;SDS011;4366;50.764;7.184;2023-06-19T09:36:44;1.20;;;1.13;;
8656;SDS011;4366;50.764;7.184;2023-06-19T09:41:47;0.90;;;0.90;;
8656;SDS011;4366;50.764;7.184;2023-06-19T09:46:51;1.42;;;1.17;;
8656;SDS011;4366;50.764;7.184;2023-06-19T09:51:54;1.45;;;1.35;;
8656;SDS011;4366;50.764;7.184;2023-06-19T09:56:55;1.05;;;0.98;;
8656;SDS011;4366;50.764;7.184;2023-06-19T10:02:00;1.30;;;1.30;;
8656;SDS011;4366;50.764;7.184;2023-06-19T10:07:02;1.00;;;1.00;;
8656;SDS011;4366;50.764;7.184;2023-06-19T10:12:04;1.00;;;1.00;;
8656;SDS011;4366;50.764;7.184;2023-06-19T10:17:15;1.13;;;1.02;;
8656;SDS011;4366;50.764;7.184;2023-06-19T10:22:21;1.35;;;1.25;;
8656;SDS011;4366;50.764;7.184;2023-06-19T10:27:25;1.27;;;1.17;;
8656;SDS011;4366;50.764;7.184;2023-06-19T10:32:27;1.10;;;1.10;;
8656;SDS011;4366;50.764;7.184;2023-06-19T10:37:32;1.45;;;1.35;;
8656;SDS011;4366;50.764;7.184;2023-06-19T10:42:34;1.50;;;1.40;;
8656;SDS011;4366;50.764;7.184;2023-06-19T10:47:37;1.63;;;1.50;;
8656;SDS011;4366;50.764;7.184;2023-06-19T10:52:40;1.25;;;1.20;;
8656;SDS011;4366;50.764;7.184;2023-06-19T10:57:46;1.30;;;1.25;;
8656;SDS011;4366;50.764;7.184;2023-06-19T11:02:48;1.40;;;1.30;;
8656;SDS011;4366;50.764;7.184;2023-06-19T11:07:51;1.90;;;1.30;;
8656;SDS011;4366;50.764;7.184;2023-06-19T11:12:58;1.55;;;1.45;;
8656;SDS011;4366;50.764;7.184;2023-06-19T11:18:00;2.03;;;1.58;;
8656;SDS011;4366;50.764;7.184;2023-06-19T11:23:03;1.50;;;1.40;;
8656;SDS011;4366;50.764;7.184;2023-06-19T11:28:05;1.70;;;1.50;;
8656;SDS011;4366;50.764;7.184;2023-06-19T11:33:19;1.77;;;1.30;;
8656;SDS011;4366;50.764;7.184;2023-06-19T11:38:24;1.75;;;1.65;;
8656;SDS011;4366;50.764;7.184;2023-06-19T11:43:31;1.77;;;1.60;;
8656;SDS011;4366;50.764;7.184;2023-06-19T11:48:37;0.98;;;0.98;;
8656;SDS011;4366;50.764;7.184;2023-06-19T11:53:39;1.50;;;1.40;;
8656;SDS011;4366;50.764;7.184;2023-06-19T11:58:40;1.40;;;1.30;;
8656;SDS011;4366;50.764;7.184;2023-06-19T12:03:42;1.33;;;1.30;;
8656;SDS011;4366;50.764;7.184;2023-06-19T12:08:44;1.77;;;1.60;;
8656;SDS011;4366;50.764;7.184;2023-06-19T12:13:46;1.20;;;1.20;;
8656;SDS011;4366;50.764;7.184;2023-06-19T12:18:48;1.17;;;1.17;;
8656;SDS011;4366;50.764;7.184;2023-06-19T12:23:50;1.48;;;1.25;;
8656;SDS011;4366;50.764;7.184;2023-06-19T12:28:51;1.52;;;1.42;;
8656;SDS011;4366;50.764;7.184;2023-06-19T12:33:55;1.05;;;1.05;;
8656;SDS011;4366;50.764;7.184;2023-06-19T12:39:00;1.60;;;1.50;;
8656;SDS011;4366;50.764;7.184;2023-06-19T12:44:03;1.60;;;1.50;;
8656;SDS011;4366;50.764;7.184;2023-06-19T12:49:05;1.48;;;1.38;;
8656;SDS011;4366;50.764;7.184;2023-06-19T12:54:07;2.00;;;1.35;;
8656;SDS011;4366;50.764;7.184;2023-06-19T12:59:09;1.20;;;1.20;;
8656;SDS011;4366;50.764;7.184;2023-06-19T13:04:12;1.80;;;1.70;;
8656;SDS011;4366;50.764;7.184;2023-06-19T13:09:14;1.50;;;1.40;;
8656;SDS011;4366;50.764;7.184;2023-06-19T13:14:16;1.50;;;1.40;;
8656;SDS011;4366;50.764;7.184;2023-06-19T13:19:17;1.48;;;1.38;;
8656;SDS011;4366;50.764;7.184;2023-06-19T13:24:19;1.10;;;1.10;;
8656;SDS011;4366;50.764;7.184;2023-06-19T13:29:21;1.20;;;1.20;;
8656;SDS011;4366;50.764;7.184;2023-06-19T13:34:22;1.60;;;1.50;;
8656;SDS011;4366;50.764;7.184;2023-06-19T13:39:24;1.40;;;1.30;;
8656;SDS011;4366;50.764;7.184;2023-06-19T13:44:26;1.63;;;1.40;;
8656;SDS011;4366;50.764;7.184;2023-06-19T13:49:28;1.42;;;1.15;;
8656;SDS011;4366;50.764;7.184;2023-06-19T13:54:30;1.35;;;1.25;;
8656;SDS011;4366;50.764;7.184;2023-06-19T13:59:32;1.45;;;1.35;;
8656;SDS011;4366;50.764;7.184;2023-06-19T14:04:34;1.55;;;1.45;;
8656;SDS011;4366;50.764;7.184;2023-06-19T14:09:36;3.60;;;1.50;;
8656;SDS011;4366;50.764;7.184;2023-06-19T14:14:38;1.27;;;1.17;;
8656;SDS011;4366;50.764;7.184;2023-06-19T14:19:42;1.50;;;1.40;;
8656;SDS011;4366;50.764;7.184;2023-06-19T14:24:44;1.58;;;1.48;;
8656;SDS011;4366;50.764;7.184;2023-06-19T14:29:46;1.40;;;1.30;;
8656;SDS011;4366;50.764;7.184;2023-06-19T14:34:47;1.15;;;1.15;;
8656;SDS011;4366;50.764;7.184;2023-06-19T14:39:49;1.48;;;1.38;;
8656;SDS011;4366;50.764;7.184;2023-06-19T14:44:51;1.70;;;1.60;;
8656;SDS011;4366;50.764;7.184;2023-06-19T14:49:52;1.20;;;1.10;;
8656;SDS011;4366;50.764;7.184;2023-06-19T14:54:54;1.38;;;1.27;;
8656;SDS011;4366;50.764;7.184;2023-06-19T14:59:59;1.25;;;1.15;;
8656;SDS011;4366;50.764;7.184;2023-06-19T15:05:01;1.48;;;1.38;;
8656;SDS011;4366;50.764;7.184;2023-06-19T15:10:07;1.70;;;1.60;;
8656;SDS011;4366;50.764;7.184;2023-06-19T15:15:10;1.58;;;1.48;;
8656;SDS011;4366;50.764;7.184;2023-06-19T15:20:12;1.88;;;1.50;;
8656;SDS011;4366;50.764;7.184;2023-06-19T15:25:15;1.40;;;1.30;;
8656;SDS011;4366;50.764;7.184;2023-06-19T15:30:16;1.88;;;1.73;;
8656;SDS011;4366;50.764;7.184;2023-06-19T15:35:18;1.38;;;1.27;;
8656;SDS011;4366;50.764;7.184;2023-06-19T15:40:20;1.45;;;1.35;;
8656;SDS011;4366;50.764;7.184;2023-06-19T15:45:22;1.55;;;1.45;;
8656;SDS011;4366;50.764;7.184;2023-06-19T15:50:23;1.35;;;1.25;;
8656;SDS011;4366;50.764;7.184;2023-06-19T15:55:26;1.50;;;1.40;;
8656;SDS011;4366;50.764;7.184;2023-06-19T16:00:28;1.65;;;1.55;;
8656;SDS011;4366;50.764;7.184;2023-06-19T16:05:30;1.70;;;1.60;;
8656;SDS011;4366;50.764;7.184;2023-06-19T16:10:32;1.60;;;1.50;;
8656;SDS011;4366;50.764;7.184;2023-06-19T16:15:34;1.73;;;1.63;;
8656;SDS011;4366;50.764;7.184;2023-06-19T16:20:36;1.52;;;1.42;;
8656;SDS011;4366;50.764;7.184;2023-06-19T16:25:38;1.63;;;1.52;;
8656;SDS011;4366;50.764;7.184;2023-06-19T16:30:40;1.77;;;1.67;;
8656;SDS011;4366;50.764;7.184;2023-06-19T16:35:41;1.10;;;1.08;;
8656;SDS011;4366;50.764;7.184;2023-06-19T16:40:43;1.88;;;1.67;;
8656;SDS011;4366;50.764;7.184;2023-06-19T16:45:44;1.40;;;1.30;;
8656;SDS011;4366;50.764;7.184;2023-06-19T16:50:46;1.70;;;1.60;;
8656;SDS011;4366;50.764;7.184;2023-06-19T16:55:48;1.98;;;1.80;;
8656;SDS011;4366;50.764;7.184;2023-06-19T17:00:51;1.90;;;1.67;;
8656;SDS011;4366;50.764;7.184;2023-06-19T17:05:53;1.48;;;1.38;;
8656;SDS011;4366;50.764;7.184;2023-06-19T17:10:55;1.90;;;1.80;;
8656;SDS011;4366;50.764;7.184;2023-06-19T17:15:57;2.00;;;1.80;;
8656;SDS011;4366;50.764;7.184;2023-06-19T17:20:59;1.48;;;1.35;;
8656;SDS011;4366;50.764;7.184;2023-06-19T17:26:01;1.90;;;1.67;;
8656;SDS011;4366;50.764;7.184;2023-06-19T17:31:03;2.00;;;1.90;;
8656;SDS011;4366;50.764;7.184;2023-06-19T17:36:08;1.70;;;1.60;;
8656;SDS011;4366;50.764;7.184;2023-06-19T17:41:11;1.27;;;1.20;;
8656;SDS011;4366;50.764;7.184;2023-06-19T17:46:13;1.63;;;1.52;;
8656;SDS011;4366;50.764;7.184;2023-06-19T17:51:14;1.80;;;1.70;;
8656;SDS011;4366;50.764;7.184;2023-06-19T17:56:16;2.17;;;1.42;;
8656;SDS011;4366;50.764;7.184;2023-06-19T18:01:18;1.65;;;1.55;;
8656;SDS011;4366;50.764;7.184;2023-06-19T18:06:20;1.52;;;1.42;;
8656;SDS011;4366;50.764;7.184;2023-06-19T18:11:22;1.63;;;1.52;;
8656;SDS011;4366;50.764;7.184;2023-06-19T18:16:24;1.40;;;1.30;;
8656;SDS011;4366;50.764;7.184;2023-06-19T18:21:28;1.65;;;1.55;;
8656;SDS011;4366;50.764;7.184;2023-06-19T18:26:29;1.90;;;1.73;;
8656;SDS011;4366;50.764;7.184;2023-06-19T18:31:31;1.58;;;1.48;;
8656;SDS011;4366;50.764;7.184;2023-06-19T18:36:33;2.17;;;1.97;;
8656;SDS011;4366;50.764;7.184;2023-06-19T18:41:35;2.20;;;2.08;;
8656;SDS011;4366;50.764;7.184;2023-06-19T18:46:36;1.48;;;1.38;;
8656;SDS011;4366;50.764;7.184;2023-06-19T18:51:38;1.67;;;1.58;;
8656;SDS011;4366;50.764;7.184;2023-06-19T18:56:40;1.80;;;1.70;;
8656;SDS011;4366;50.764;7.184;2023-06-19T19:01:42;2.38;;;2.17;;
8656;SDS011;4366;50.764;7.184;2023-06-19T19:06:44;2.53;;;2.33;;
8656;SDS011;4366;50.764;7.184;2023-06-19T19:11:45;2.28;;;2.13;;
8656;SDS011;4366;50.764;7.184;2023-06-19T19:16:49;1.73;;;1.63;;
8656;SDS011;4366;50.764;7.184;2023-06-19T19:21:51;1.45;;;1.35;;
8656;SDS011;4366;50.764;7.184;2023-06-19T19:26:54;1.55;;;1.45;;
8656;SDS011;4366;50.764;7.184;2023-06-19T19:31:56;1.63;;;1.52;;
8656;SDS011;4366;50.764;7.184;2023-06-19T19:36:58;2.90;;;1.90;;
8656;SDS011;4366;50.764;7.184;2023-06-19T19:41:59;1.75;;;1.60;;
8656;SDS011;4366;50.764;7.184;2023-06-19T19:47:01;1.30;;;1.20;;
8656;SDS011;4366;50.764;7.184;2023-06-19T19:52:02;1.77;;;1.67;;
8656;SDS011;4366;50.764;7.184;2023-06-19T19:57:05;1.83;;;1.70;;
8656;SDS011;4366;50.764;7.184;2023-06-19T20:02:08;1.77;;;1.65;;
8656;SDS011;4366;50.764;7.184;2023-06-19T20:07:11;1.42;;;1.33;;
8656;SDS011;4366;50.764;7.184;2023-06-19T20:12:13;1.60;;;1.50;;
8656;SDS011;4366;50.764;7.184;2023-06-19T20:17:22;1.60;;;1.50;;
8656;SDS011;4366;50.764;7.184;2023-06-19T20:22:24;2.67;;;1.58;;
8656;SDS011;4366;50.764;7.184;2023-06-19T20:27:26;1.13;;;1.10;;
8656;SDS011;4366;50.764;7.184;2023-06-19T20:32:28;1.90;;;1.75;;
8656;SDS011;4366;50.764;7.184;2023-06-19T20:37:29;1.20;;;1.17;;
8656;SDS011;4366;50.764;7.184;2023-06-19T20:42:31;1.40;;;1.30;;
8656;SDS011;4366;50.764;7.184;2023-06-19T20:47:32;1.80;;;1.70;;
8656;SDS011;4366;50.764;7.184;2023-06-19T20:52:34;2.22;;;1.83;;
8656;SDS011;4366;50.764;7.184;2023-06-19T20:57:36;1.80;;;1.70;;
8656;SDS011;4366;50.764;7.184;2023-06-19T21:02:38;1.80;;;1.70;;
8656;SDS011;4366;50.764;7.184;2023-06-19T21:07:43;1.73;;;1.63;;
8656;SDS011;4366;50.764;7.184;2023-06-19T21:12:46;1.80;;;1.70;;
8656;SDS011;4366;50.764;7.184;2023-06-19T21:17:47;2.42;;;1.70;;
8656;SDS011;4366;50.764;7.184;2023-06-19T21:22:49;1.85;;;1.75;;
8656;SDS011;4366;50.764;7.184;2023-06-19T21:27:51;1.75;;;1.65;;
8656;SDS011;4366;50.764;7.184;2023-06-19T21:32:52;1.65;;;1.55;;
8656;SDS011;4366;50.764;7.184;2023-06-19T21:37:54;1.83;;;1.60;;
8656;SDS011;4366;50.764;7.184;2023-06-19T21:42:56;1.90;;;1.80;;
8656;SDS011;4366;50.764;7.184;2023-06-19T21:47:57;1.80;;;1.70;;
8656;SDS011;4366;50.764;7.184;2023-06-19T21:52:59;1.85;;;1.75;;
8656;SDS011;4366;50.764;7.184;2023-06-19T21:58:01;1.80;;;1.70;;
8656;SDS011;4366;50.764;7.184;2023-06-19T22:03:02;2.25;;;1.55;;
8656;SDS011;4366;50.764;7.184;2023-06-19T22:08:04;3.17;;;1.70;;
8656;SDS011;4366;50.764;7.184;2023-06-19T22:13:06;1.88;;;1.75;;
8656;SDS011;4366;50.764;7.184;2023-06-19T22:18:11;2.35;;;1.80;;
8656;SDS011;4366;50.764;7.184;2023-06-19T22:23:17;1.77;;;1.67;;
8656;SDS011;4366;50.764;7.184;2023-06-19T22:28:18;1.55;;;1.45;;
8656;SDS011;4366;50.764;7.184;2023-06-19T22:33:20;2.00;;;1.85;;
8656;SDS011;4366;50.764;7.184;2023-06-19T22:38:22;2.20;;;2.00;;
8656;SDS011;4366;50.764;7.184;2023-06-19T22:43:24;2.40;;;1.80;;
8656;SDS011;4366;50.764;7.184;2023-06-19T22:48:26;2.17;;;1.65;;
8656;SDS011;4366;50.764;7.184;2023-06-19T22:53:28;1.80;;;1.70;;
8656;SDS011;4366;50.764;7.184;2023-06-19T22:58:29;1.65;;;1.55;;
8656;SDS011;4366;50.764;7.184;2023-06-19T23:03:31;1.73;;;1.60;;
8656;SDS011;4366;50.764;7.184;2023-06-19T23:08:33;2.25;;;1.75;;
8656;SDS011;4366;50.764;7.184;2023-06-19T23:13:41;2.70;;;1.80;;
8656;SDS011;4366;50.764;7.184;2023-06-19T23:18:43;1.70;;;1.60;;
8656;SDS011;4366;50.764;7.184;2023-06-19T23:23:44;1.75;;;1.65;;
8656;SDS011;4366;50.764;7.184;2023-06-19T23:28:51;2.30;;;2.10;;
8656;SDS011;4366;50.764;7.184;2023-06-19T23:33:54;2.15;;;1.77;;
8656;SDS011;4366;50.764;7.184;2023-06-19T23:39:00;1.52;;;1.42;;
8656;SDS011;4366;50.764;7.184;2023-06-19T23:44:02;1.83;;;1.73;;
8656;SDS011;4366;50.764;7.184;2023-06-19T23:49:04;2.03;;;1.92;;
8656;SDS011;4366;50.764;7.184;2023-06-19T23:54:05;2.35;;;2.15;;
8656;SDS011;4366;50.764;7.184;2023-06-19T23:59:07;1.60;;;1.50;;
